sensor_id;sensor_type;location;lat;lon;timestamp;P1;durP1;ratioP1;P2;durP2;ratioP2
3155;SDS011;1588;50.892;7.082;2024-01-30T00:01:53;21.10;;;9.33;;
3155;SDS011;1588;50.892;7.082;2024-01-30T00:12:27;30.27;;;10.23;;
3155;SDS011;1588;50.892;7.082;2024-01-30T00:17:31;25.77;;;10.13;;
3155;SDS011;1588;50.892;7.082;2024-01-30T00:22:34;27.17;;;9.10;;
3155;SDS011;1588;50.892;7.082;2024-01-30T00:27:37;17.67;;;8.60;;
3155;SDS011;1588;50.892;7.082;2024-01-30T00:32:40;17.63;;;8.80;;
3155;SDS011;1588;50.892;7.082;2024-01-30T00:37:47;16.00;;;8.30;;
3155;SDS011;1588;50.892;7.082;2024-01-30T00:42:50;15.50;;;8.77;;
3155;SDS011;1588;50.892;7.082;2024-01-30T00:47:55;19.27;;;7.97;;
3155;SDS011;1588;50.892;7.082;2024-01-30T00:52:57;19.43;;;9.60;;
3155;SDS011;1588;50.892;7.082;2024-01-30T00:58:00;16.40;;;8.37;;
3155;SDS011;1588;50.892;7.082;2024-01-30T01:03:05;17.70;;;8.40;;
3155;SDS011;1588;50.892;7.082;2024-01-30T01:08:08;16.20;;;8.13;;
3155;SDS011;1588;50.892;7.082;2024-01-30T01:13:10;18.13;;;8.13;;
3155;SDS011;1588;50.892;7.082;2024-01-30T01:18:14;15.77;;;8.33;;
3155;SDS011;1588;50.892;7.082;2024-01-30T01:23:17;19.87;;;9.17;;
3155;SDS011;1588;50.892;7.082;2024-01-30T01:28:19;18.10;;;9.47;;
3155;SDS011;1588;50.892;7.082;2024-01-30T01:33:23;18.20;;;8.20;;
3155;SDS011;1588;50.892;7.082;2024-01-30T01:38:25;19.43;;;8.30;;
3155;SDS011;1588;50.892;7.082;2024-01-30T01:43:28;15.27;;;8.43;;
3155;SDS011;1588;50.892;7.082;2024-01-30T01:48:32;20.23;;;8.70;;
3155;SDS011;1588;50.892;7.082;2024-01-30T01:53:35;23.63;;;9.00;;
3155;SDS011;1588;50.892;7.082;2024-01-30T01:58:37;23.23;;;12.00;;
3155;SDS011;1588;50.892;7.082;2024-01-30T02:03:42;19.73;;;10.00;;
3155;SDS011;1588;50.892;7.082;2024-01-30T02:08:44;16.97;;;7.70;;
3155;SDS011;1588;50.892;7.082;2024-01-30T02:13:47;18.93;;;9.10;;
3155;SDS011;1588;50.892;7.082;2024-01-30T02:18:51;19.33;;;8.63;;
3155;SDS011;1588;50.892;7.082;2024-01-30T02:23:54;22.23;;;8.87;;
3155;SDS011;1588;50.892;7.082;2024-01-30T02:28:58;24.00;;;8.30;;
3155;SDS011;1588;50.892;7.082;2024-01-30T02:34:00;18.60;;;8.87;;
3155;SDS011;1588;50.892;7.082;2024-01-30T02:39:04;18.80;;;8.90;;
3155;SDS011;1588;50.892;7.082;2024-01-30T02:44:07;20.03;;;7.93;;
3155;SDS011;1588;50.892;7.082;2024-01-30T02:49:09;17.40;;;8.33;;
3155;SDS011;1588;50.892;7.082;2024-01-30T02:54:13;17.30;;;8.43;;
3155;SDS011;1588;50.892;7.082;2024-01-30T02:59:16;19.00;;;9.10;;
3155;SDS011;1588;50.892;7.082;2024-01-30T03:04:18;17.23;;;8.57;;
3155;SDS011;1588;50.892;7.082;2024-01-30T03:09:25;21.80;;;8.77;;
3155;SDS011;1588;50.892;7.082;2024-01-30T03:14:29;13.70;;;7.57;;
3155;SDS011;1588;50.892;7.082;2024-01-30T03:19:38;22.07;;;8.70;;
3155;SDS011;1588;50.892;7.082;2024-01-30T03:24:42;12.20;;;6.83;;
3155;SDS011;1588;50.892;7.082;2024-01-30T03:29:45;18.70;;;7.97;;
3155;SDS011;1588;50.892;7.082;2024-01-30T03:34:47;21.83;;;8.77;;
3155;SDS011;1588;50.892;7.082;2024-01-30T03:39:51;15.93;;;7.90;;
3155;SDS011;1588;50.892;7.082;2024-01-30T03:44:53;15.90;;;8.03;;
3155;SDS011;1588;50.892;7.082;2024-01-30T03:49:56;20.07;;;7.37;;
3155;SDS011;1588;50.892;7.082;2024-01-30T03:55:05;14.90;;;7.03;;
3155;SDS011;1588;50.892;7.082;2024-01-30T04:00:11;15.27;;;7.63;;
3155;SDS011;1588;50.892;7.082;2024-01-30T04:05:14;17.87;;;7.20;;
3155;SDS011;1588;50.892;7.082;2024-01-30T04:10:19;18.97;;;7.27;;
3155;SDS011;1588;50.892;7.082;2024-01-30T04:15:23;14.13;;;6.93;;
3155;SDS011;1588;50.892;7.082;2024-01-30T04:20:29;12.40;;;6.90;;
3155;SDS011;1588;50.892;7.082;2024-01-30T04:25:33;14.50;;;7.13;;
3155;SDS011;1588;50.892;7.082;2024-01-30T04:30:36;25.10;;;7.30;;
3155;SDS011;1588;50.892;7.082;2024-01-30T04:35:38;15.23;;;7.60;;
3155;SDS011;1588;50.892;7.082;2024-01-30T04:40:46;15.90;;;7.63;;
3155;SDS011;1588;50.892;7.082;2024-01-30T04:45:49;14.63;;;7.40;;
3155;SDS011;1588;50.892;7.082;2024-01-30T04:50:52;17.00;;;7.80;;
3155;SDS011;1588;50.892;7.082;2024-01-30T04:55:56;14.40;;;6.43;;
3155;SDS011;1588;50.892;7.082;2024-01-30T05:00:59;14.67;;;7.90;;
3155;SDS011;1588;50.892;7.082;2024-01-30T05:06:01;16.03;;;7.53;;
3155;SDS011;1588;50.892;7.082;2024-01-30T05:11:11;14.50;;;7.47;;
3155;SDS011;1588;50.892;7.082;2024-01-30T05:16:14;15.07;;;7.57;;
3155;SDS011;1588;50.892;7.082;2024-01-30T05:21:19;13.67;;;6.87;;
3155;SDS011;1588;50.892;7.082;2024-01-30T05:26:29;15.00;;;7.23;;
3155;SDS011;1588;50.892;7.082;2024-01-30T05:31:32;16.93;;;7.40;;
3155;SDS011;1588;50.892;7.082;2024-01-30T05:36:45;13.80;;;7.57;;
3155;SDS011;1588;50.892;7.082;2024-01-30T05:41:54;14.30;;;6.77;;
3155;SDS011;1588;50.892;7.082;2024-01-30T05:46:57;16.60;;;8.33;;
3155;SDS011;1588;50.892;7.082;2024-01-30T05:51:59;17.00;;;7.83;;
3155;SDS011;1588;50.892;7.082;2024-01-30T05:57:04;13.90;;;7.20;;
3155;SDS011;1588;50.892;7.082;2024-01-30T06:02:11;12.00;;;6.20;;
3155;SDS011;1588;50.892;7.082;2024-01-30T06:07:17;15.23;;;7.40;;
3155;SDS011;1588;50.892;7.082;2024-01-30T06:12:27;23.37;;;7.60;;
3155;SDS011;1588;50.892;7.082;2024-01-30T06:17:31;16.77;;;7.53;;
3155;SDS011;1588;50.892;7.082;2024-01-30T06:22:33;21.73;;;7.67;;
3155;SDS011;1588;50.892;7.082;2024-01-30T06:27:38;16.33;;;7.70;;
3155;SDS011;1588;50.892;7.082;2024-01-30T06:32:41;20.17;;;8.20;;
3155;SDS011;1588;50.892;7.082;2024-01-30T06:37:43;18.20;;;7.67;;
3155;SDS011;1588;50.892;7.082;2024-01-30T06:42:47;20.53;;;8.40;;
3155;SDS011;1588;50.892;7.082;2024-01-30T06:47:49;14.30;;;7.60;;
3155;SDS011;1588;50.892;7.082;2024-01-30T06:52:52;16.43;;;7.70;;
3155;SDS011;1588;50.892;7.082;2024-01-30T06:57:56;16.60;;;7.13;;
3155;SDS011;1588;50.892;7.082;2024-01-30T07:02:58;18.00;;;7.13;;
3155;SDS011;1588;50.892;7.082;2024-01-30T07:08:01;15.77;;;7.50;;
3155;SDS011;1588;50.892;7.082;2024-01-30T07:13:05;12.20;;;7.07;;
3155;SDS011;1588;50.892;7.082;2024-01-30T07:18:09;16.93;;;7.60;;
3155;SDS011;1588;50.892;7.082;2024-01-30T07:23:11;17.27;;;8.00;;
3155;SDS011;1588;50.892;7.082;2024-01-30T07:28:19;16.40;;;8.50;;
3155;SDS011;1588;50.892;7.082;2024-01-30T07:33:21;17.83;;;7.53;;
3155;SDS011;1588;50.892;7.082;2024-01-30T07:38:24;21.40;;;7.60;;
3155;SDS011;1588;50.892;7.082;2024-01-30T07:43:29;18.77;;;8.20;;
3155;SDS011;1588;50.892;7.082;2024-01-30T07:48:31;17.13;;;8.10;;
3155;SDS011;1588;50.892;7.082;2024-01-30T07:53:35;14.17;;;6.80;;
3155;SDS011;1588;50.892;7.082;2024-01-30T07:58:40;16.50;;;7.53;;
3155;SDS011;1588;50.892;7.082;2024-01-30T08:03:43;16.27;;;8.80;;
3155;SDS011;1588;50.892;7.082;2024-01-30T08:08:47;16.57;;;6.70;;
3155;SDS011;1588;50.892;7.082;2024-01-30T08:13:55;15.87;;;7.60;;
3155;SDS011;1588;50.892;7.082;2024-01-30T08:18:58;16.67;;;8.40;;
3155;SDS011;1588;50.892;7.082;2024-01-30T08:24:02;17.40;;;8.87;;
3155;SDS011;1588;50.892;7.082;2024-01-30T08:29:07;19.53;;;8.10;;
3155;SDS011;1588;50.892;7.082;2024-01-30T08:34:09;20.73;;;7.40;;
3155;SDS011;1588;50.892;7.082;2024-01-30T08:39:12;20.33;;;7.63;;
3155;SDS011;1588;50.892;7.082;2024-01-30T08:44:17;18.60;;;7.23;;
3155;SDS011;1588;50.892;7.082;2024-01-30T08:49:19;15.10;;;7.70;;
3155;SDS011;1588;50.892;7.082;2024-01-30T08:54:22;15.50;;;6.70;;
3155;SDS011;1588;50.892;7.082;2024-01-30T08:59:27;14.10;;;7.13;;
3155;SDS011;1588;50.892;7.082;2024-01-30T09:04:30;16.60;;;7.60;;
3155;SDS011;1588;50.892;7.082;2024-01-30T09:09:33;19.80;;;7.27;;
3155;SDS011;1588;50.892;7.082;2024-01-30T09:14:38;18.90;;;8.03;;
3155;SDS011;1588;50.892;7.082;2024-01-30T09:19:42;14.77;;;7.67;;
3155;SDS011;1588;50.892;7.082;2024-01-30T09:24:45;20.43;;;7.73;;
3155;SDS011;1588;50.892;7.082;2024-01-30T09:30:08;14.70;;;7.90;;
3155;SDS011;1588;50.892;7.082;2024-01-30T09:35:36;14.80;;;7.00;;
3155;SDS011;1588;50.892;7.082;2024-01-30T09:40:38;19.57;;;8.27;;
3155;SDS011;1588;50.892;7.082;2024-01-30T09:45:44;11.40;;;6.30;;
3155;SDS011;1588;50.892;7.082;2024-01-30T09:50:48;11.53;;;5.73;;
3155;SDS011;1588;50.892;7.082;2024-01-30T09:55:52;14.43;;;6.30;;
3155;SDS011;1588;50.892;7.082;2024-01-30T10:00:57;13.03;;;6.50;;
3155;SDS011;1588;50.892;7.082;2024-01-30T10:06:00;14.47;;;6.40;;
3155;SDS011;1588;50.892;7.082;2024-01-30T10:11:03;11.17;;;6.23;;
3155;SDS011;1588;50.892;7.082;2024-01-30T10:16:08;14.80;;;7.00;;
3155;SDS011;1588;50.892;7.082;2024-01-30T10:21:11;15.57;;;6.50;;
3155;SDS011;1588;50.892;7.082;2024-01-30T10:26:15;11.87;;;7.00;;
3155;SDS011;1588;50.892;7.082;2024-01-30T10:31:19;16.30;;;6.77;;
3155;SDS011;1588;50.892;7.082;2024-01-30T10:36:24;17.17;;;6.90;;
3155;SDS011;1588;50.892;7.082;2024-01-30T10:41:42;12.80;;;6.30;;
3155;SDS011;1588;50.892;7.082;2024-01-30T10:46:49;14.33;;;6.90;;
3155;SDS011;1588;50.892;7.082;2024-01-30T10:51:59;19.23;;;6.87;;
3155;SDS011;1588;50.892;7.082;2024-01-30T10:57:02;16.93;;;7.00;;
3155;SDS011;1588;50.892;7.082;2024-01-30T11:02:09;21.27;;;7.87;;
3155;SDS011;1588;50.892;7.082;2024-01-30T11:07:14;11.40;;;6.97;;
3155;SDS011;1588;50.892;7.082;2024-01-30T11:12:21;14.10;;;7.23;;
3155;SDS011;1588;50.892;7.082;2024-01-30T11:17:40;13.60;;;6.77;;
3155;SDS011;1588;50.892;7.082;2024-01-30T11:22:47;13.10;;;7.20;;
3155;SDS011;1588;50.892;7.082;2024-01-30T11:27:51;20.93;;;8.33;;
3155;SDS011;1588;50.892;7.082;2024-01-30T11:38:17;12.70;;;7.10;;
3155;SDS011;1588;50.892;7.082;2024-01-30T11:43:20;19.40;;;6.47;;
3155;SDS011;1588;50.892;7.082;2024-01-30T11:48:30;12.93;;;6.23;;
3155;SDS011;1588;50.892;7.082;2024-01-30T11:53:33;14.00;;;7.60;;
3155;SDS011;1588;50.892;7.082;2024-01-30T11:58:36;11.63;;;6.70;;
3155;SDS011;1588;50.892;7.082;2024-01-30T12:03:43;11.97;;;6.23;;
3155;SDS011;1588;50.892;7.082;2024-01-30T12:08:56;17.87;;;7.47;;
3155;SDS011;1588;50.892;7.082;2024-01-30T12:14:00;21.00;;;7.80;;
3155;SDS011;1588;50.892;7.082;2024-01-30T12:19:05;20.73;;;6.13;;
3155;SDS011;1588;50.892;7.082;2024-01-30T12:24:09;12.53;;;6.00;;
3155;SDS011;1588;50.892;7.082;2024-01-30T12:29:16;12.70;;;5.60;;
3155;SDS011;1588;50.892;7.082;2024-01-30T12:34:20;12.17;;;5.60;;
3155;SDS011;1588;50.892;7.082;2024-01-30T12:39:22;13.27;;;6.50;;
3155;SDS011;1588;50.892;7.082;2024-01-30T12:44:25;12.87;;;5.90;;
3155;SDS011;1588;50.892;7.082;2024-01-30T12:49:29;13.83;;;6.33;;
3155;SDS011;1588;50.892;7.082;2024-01-30T12:54:32;12.57;;;6.30;;
3155;SDS011;1588;50.892;7.082;2024-01-30T12:59:38;8.77;;;5.43;;
3155;SDS011;1588;50.892;7.082;2024-01-30T13:04:45;13.77;;;6.27;;
3155;SDS011;1588;50.892;7.082;2024-01-30T13:09:52;14.40;;;6.27;;
3155;SDS011;1588;50.892;7.082;2024-01-30T13:14:54;12.50;;;6.30;;
3155;SDS011;1588;50.892;7.082;2024-01-30T13:19:58;12.90;;;6.23;;
3155;SDS011;1588;50.892;7.082;2024-01-30T13:25:01;11.60;;;6.13;;
3155;SDS011;1588;50.892;7.082;2024-01-30T13:30:05;12.50;;;5.63;;
3155;SDS011;1588;50.892;7.082;2024-01-30T13:35:15;21.03;;;6.30;;
3155;SDS011;1588;50.892;7.082;2024-01-30T13:40:18;14.20;;;6.43;;
3155;SDS011;1588;50.892;7.082;2024-01-30T13:45:24;14.07;;;6.50;;
3155;SDS011;1588;50.892;7.082;2024-01-30T13:50:27;15.63;;;6.40;;
3155;SDS011;1588;50.892;7.082;2024-01-30T13:55:31;11.07;;;6.57;;
3155;SDS011;1588;50.892;7.082;2024-01-30T14:00:34;14.50;;;7.30;;
3155;SDS011;1588;50.892;7.082;2024-01-30T14:05:38;16.30;;;6.63;;
3155;SDS011;1588;50.892;7.082;2024-01-30T14:10:41;15.30;;;7.07;;
3155;SDS011;1588;50.892;7.082;2024-01-30T14:15:44;15.83;;;6.50;;
3155;SDS011;1588;50.892;7.082;2024-01-30T14:20:48;10.87;;;6.50;;
3155;SDS011;1588;50.892;7.082;2024-01-30T14:25:50;14.33;;;7.27;;
3155;SDS011;1588;50.892;7.082;2024-01-30T14:30:53;16.83;;;6.70;;
3155;SDS011;1588;50.892;7.082;2024-01-30T14:35:57;11.17;;;6.30;;
3155;SDS011;1588;50.892;7.082;2024-01-30T14:41:00;13.00;;;6.60;;
3155;SDS011;1588;50.892;7.082;2024-01-30T14:46:04;17.93;;;7.03;;
3155;SDS011;1588;50.892;7.082;2024-01-30T14:51:09;17.07;;;7.00;;
3155;SDS011;1588;50.892;7.082;2024-01-30T14:56:12;14.30;;;7.43;;
3155;SDS011;1588;50.892;7.082;2024-01-30T15:01:14;38.77;;;13.33;;
3155;SDS011;1588;50.892;7.082;2024-01-30T15:06:18;13.47;;;6.83;;
3155;SDS011;1588;50.892;7.082;2024-01-30T15:11:23;12.87;;;6.87;;
3155;SDS011;1588;50.892;7.082;2024-01-30T15:16:36;16.10;;;7.63;;
3155;SDS011;1588;50.892;7.082;2024-01-30T15:22:17;24.33;;;7.37;;
3155;SDS011;1588;50.892;7.082;2024-01-30T15:27:19;19.73;;;8.00;;
3155;SDS011;1588;50.892;7.082;2024-01-30T15:32:22;17.20;;;7.83;;
3155;SDS011;1588;50.892;7.082;2024-01-30T15:37:29;15.57;;;5.73;;
3155;SDS011;1588;50.892;7.082;2024-01-30T15:42:32;15.07;;;6.77;;
3155;SDS011;1588;50.892;7.082;2024-01-30T15:47:34;13.30;;;7.30;;
3155;SDS011;1588;50.892;7.082;2024-01-30T15:52:38;17.30;;;6.67;;
3155;SDS011;1588;50.892;7.082;2024-01-30T15:57:41;19.27;;;8.07;;
3155;SDS011;1588;50.892;7.082;2024-01-30T16:02:43;15.57;;;8.00;;
3155;SDS011;1588;50.892;7.082;2024-01-30T16:07:47;13.10;;;7.57;;
3155;SDS011;1588;50.892;7.082;2024-01-30T16:12:49;16.57;;;7.03;;
3155;SDS011;1588;50.892;7.082;2024-01-30T16:17:52;14.73;;;7.60;;
3155;SDS011;1588;50.892;7.082;2024-01-30T16:22:56;18.07;;;7.37;;
3155;SDS011;1588;50.892;7.082;2024-01-30T16:28:01;14.93;;;7.67;;
3155;SDS011;1588;50.892;7.082;2024-01-30T16:33:07;26.27;;;7.63;;
3155;SDS011;1588;50.892;7.082;2024-01-30T16:38:13;23.10;;;7.90;;
3155;SDS011;1588;50.892;7.082;2024-01-30T16:43:17;20.43;;;7.80;;
3155;SDS011;1588;50.892;7.082;2024-01-30T16:48:19;14.43;;;7.13;;
3155;SDS011;1588;50.892;7.082;2024-01-30T16:53:27;21.10;;;7.10;;
3155;SDS011;1588;50.892;7.082;2024-01-30T16:58:31;15.00;;;7.10;;
3155;SDS011;1588;50.892;7.082;2024-01-30T17:03:34;23.93;;;7.10;;
3155;SDS011;1588;50.892;7.082;2024-01-30T17:08:41;16.23;;;5.50;;
3155;SDS011;1588;50.892;7.082;2024-01-30T17:13:44;16.03;;;5.83;;
3155;SDS011;1588;50.892;7.082;2024-01-30T17:18:47;9.63;;;3.77;;
3155;SDS011;1588;50.892;7.082;2024-01-30T17:23:51;6.53;;;3.67;;
3155;SDS011;1588;50.892;7.082;2024-01-30T17:28:53;8.53;;;2.67;;
3155;SDS011;1588;50.892;7.082;2024-01-30T17:33:56;6.20;;;2.40;;
3155;SDS011;1588;50.892;7.082;2024-01-30T17:39:00;4.10;;;1.73;;
3155;SDS011;1588;50.892;7.082;2024-01-30T17:44:06;2.57;;;1.60;;
3155;SDS011;1588;50.892;7.082;2024-01-30T17:49:09;3.90;;;1.70;;
3155;SDS011;1588;50.892;7.082;2024-01-30T17:54:13;5.97;;;1.97;;
3155;SDS011;1588;50.892;7.082;2024-01-30T17:59:16;3.43;;;1.70;;
3155;SDS011;1588;50.892;7.082;2024-01-30T18:04:26;1.67;;;1.40;;
3155;SDS011;1588;50.892;7.082;2024-01-30T18:09:30;4.63;;;1.40;;
3155;SDS011;1588;50.892;7.082;2024-01-30T18:14:33;13.17;;;2.10;;
3155;SDS011;1588;50.892;7.082;2024-01-30T18:19:35;5.50;;;1.47;;
3155;SDS011;1588;50.892;7.082;2024-01-30T18:24:39;5.20;;;1.43;;
3155;SDS011;1588;50.892;7.082;2024-01-30T18:29:44;3.10;;;1.50;;
3155;SDS011;1588;50.892;7.082;2024-01-30T18:34:46;2.23;;;1.50;;
3155;SDS011;1588;50.892;7.082;2024-01-30T18:39:54;3.77;;;1.53;;
3155;SDS011;1588;50.892;7.082;2024-01-30T18:44:56;4.43;;;1.90;;
3155;SDS011;1588;50.892;7.082;2024-01-30T18:50:13;2.50;;;1.80;;
3155;SDS011;1588;50.892;7.082;2024-01-30T18:55:17;16.10;;;2.00;;
3155;SDS011;1588;50.892;7.082;2024-01-30T19:00:20;3.40;;;1.53;;
3155;SDS011;1588;50.892;7.082;2024-01-30T19:05:23;9.93;;;1.90;;
3155;SDS011;1588;50.892;7.082;2024-01-30T19:10:26;4.23;;;1.70;;
3155;SDS011;1588;50.892;7.082;2024-01-30T19:15:29;4.17;;;1.57;;
3155;SDS011;1588;50.892;7.082;2024-01-30T19:20:31;4.80;;;1.93;;
3155;SDS011;1588;50.892;7.082;2024-01-30T19:25:35;6.87;;;1.40;;
3155;SDS011;1588;50.892;7.082;2024-01-30T19:30:38;4.03;;;1.70;;
3155;SDS011;1588;50.892;7.082;2024-01-30T19:35:40;1.87;;;1.60;;
3155;SDS011;1588;50.892;7.082;2024-01-30T19:40:45;3.40;;;2.00;;
3155;SDS011;1588;50.892;7.082;2024-01-30T19:45:47;6.67;;;1.70;;
3155;SDS011;1588;50.892;7.082;2024-01-30T19:50:50;7.67;;;1.87;;
3155;SDS011;1588;50.892;7.082;2024-01-30T19:56:00;3.67;;;1.50;;
3155;SDS011;1588;50.892;7.082;2024-01-30T20:01:04;3.43;;;1.40;;
3155;SDS011;1588;50.892;7.082;2024-01-30T20:06:14;2.47;;;1.50;;
3155;SDS011;1588;50.892;7.082;2024-01-30T20:11:35;11.70;;;2.13;;
3155;SDS011;1588;50.892;7.082;2024-01-30T20:16:38;2.83;;;1.87;;
3155;SDS011;1588;50.892;7.082;2024-01-30T20:21:48;7.60;;;2.13;;
3155;SDS011;1588;50.892;7.082;2024-01-30T20:26:59;2.63;;;1.83;;
3155;SDS011;1588;50.892;7.082;2024-01-30T20:32:13;11.97;;;4.60;;
3155;SDS011;1588;50.892;7.082;2024-01-30T20:37:16;11.07;;;4.30;;
3155;SDS011;1588;50.892;7.082;2024-01-30T20:42:20;3.83;;;2.37;;
3155;SDS011;1588;50.892;7.082;2024-01-30T20:47:25;6.60;;;3.17;;
3155;SDS011;1588;50.892;7.082;2024-01-30T20:52:28;11.97;;;2.33;;
3155;SDS011;1588;50.892;7.082;2024-01-30T20:57:32;4.37;;;2.00;;
3155;SDS011;1588;50.892;7.082;2024-01-30T21:02:36;3.33;;;1.73;;
3155;SDS011;1588;50.892;7.082;2024-01-30T21:07:38;3.93;;;2.30;;
3155;SDS011;1588;50.892;7.082;2024-01-30T21:12:42;6.33;;;2.00;;
3155;SDS011;1588;50.892;7.082;2024-01-30T21:17:46;6.93;;;3.20;;
3155;SDS011;1588;50.892;7.082;2024-01-30T21:22:49;3.03;;;1.83;;
3155;SDS011;1588;50.892;7.082;2024-01-30T21:27:53;7.17;;;2.67;;
3155;SDS011;1588;50.892;7.082;2024-01-30T21:32:56;6.67;;;2.33;;
3155;SDS011;1588;50.892;7.082;2024-01-30T21:38:01;8.03;;;2.20;;
3155;SDS011;1588;50.892;7.082;2024-01-30T21:43:13;4.83;;;2.50;;
3155;SDS011;1588;50.892;7.082;2024-01-30T21:48:16;3.30;;;1.80;;
3155;SDS011;1588;50.892;7.082;2024-01-30T21:53:18;8.47;;;2.20;;
3155;SDS011;1588;50.892;7.082;2024-01-30T21:58:23;4.70;;;2.00;;
3155;SDS011;1588;50.892;7.082;2024-01-30T22:03:28;8.13;;;2.50;;
3155;SDS011;1588;50.892;7.082;2024-01-30T22:08:31;5.23;;;2.77;;
3155;SDS011;1588;50.892;7.082;2024-01-30T22:13:35;13.03;;;3.50;;
3155;SDS011;1588;50.892;7.082;2024-01-30T22:18:39;4.63;;;2.50;;
3155;SDS011;1588;50.892;7.082;2024-01-30T22:23:41;8.80;;;3.10;;
3155;SDS011;1588;50.892;7.082;2024-01-30T22:28:46;6.87;;;3.00;;
3155;SDS011;1588;50.892;7.082;2024-01-30T22:33:48;6.10;;;2.77;;
3155;SDS011;1588;50.892;7.082;2024-01-30T22:38:51;7.43;;;2.63;;
3155;SDS011;1588;50.892;7.082;2024-01-30T22:43:56;5.17;;;2.47;;
3155;SDS011;1588;50.892;7.082;2024-01-30T22:48:58;7.73;;;2.80;;
3155;SDS011;1588;50.892;7.082;2024-01-30T22:54:01;14.40;;;2.50;;
3155;SDS011;1588;50.892;7.082;2024-01-30T22:59:05;4.80;;;2.50;;
3155;SDS011;1588;50.892;7.082;2024-01-30T23:04:08;5.03;;;3.00;;
3155;SDS011;1588;50.892;7.082;2024-01-30T23:09:10;8.13;;;3.17;;
3155;SDS011;1588;50.892;7.082;2024-01-30T23:14:16;9.00;;;2.43;;
3155;SDS011;1588;50.892;7.082;2024-01-30T23:19:21;9.17;;;2.73;;
3155;SDS011;1588;50.892;7.082;2024-01-30T23:24:24;6.00;;;3.10;;
3155;SDS011;1588;50.892;7.082;2024-01-30T23:29:27;13.03;;;3.07;;
3155;SDS011;1588;50.892;7.082;2024-01-30T23:34:30;6.33;;;2.40;;
3155;SDS011;1588;50.892;7.082;2024-01-30T23:39:33;7.00;;;3.20;;
3155;SDS011;1588;50.892;7.082;2024-01-30T23:44:37;10.33;;;3.53;;
3155;SDS011;1588;50.892;7.082;2024-01-30T23:49:39;7.37;;;2.73;;
3155;SDS011;1588;50.892;7.082;2024-01-30T23:54:42;5.20;;;2.83;;
3155;SDS011;1588;50.892;7.082;2024-01-30T23:59:46;8.37;;;3.73;;
